createdAt,value
2023-01-29T00:00:00.629Z,7.4
2023-01-29T00:01:04.595Z,7.5
2023-01-29T00:02:00.516Z,7.5
2023-01-29T00:03:00.451Z,7.5
2023-01-29T00:04:00.430Z,7.5
2023-01-29T00:05:10.050Z,7.5
2023-01-29T00:06:04.453Z,7.2
2023-01-29T00:07:00.439Z,7.2
2023-01-29T00:08:00.779Z,7.2
2023-01-29T00:09:00.431Z,7.2
2023-01-29T00:10:00.385Z,7.2
2023-01-29T00:11:02.529Z,7.1
2023-01-29T00:12:00.535Z,7.1
2023-01-29T00:13:00.381Z,7.1
2023-01-29T00:14:00.408Z,7.1
2023-01-29T00:15:00.349Z,7.1
2023-01-29T00:16:01.274Z,6.9
2023-01-29T00:17:00.472Z,6.9
2023-01-29T00:18:00.380Z,6.9
2023-01-29T00:19:01.388Z,6.9
2023-01-29T00:20:00.450Z,6.9
2023-01-29T00:21:00.358Z,7.3
2023-01-29T00:22:00.403Z,7.3
2023-01-29T00:23:00.363Z,7.3
2023-01-29T00:24:00.573Z,7.3
2023-01-29T00:25:00.376Z,7.3
2023-01-29T00:26:00.398Z,6.9
2023-01-29T00:27:00.381Z,6.9
2023-01-29T00:28:00.400Z,6.9
2023-01-29T00:29:00.391Z,6.9
2023-01-29T00:30:00.424Z,6.9
2023-01-29T00:31:08.659Z,7.4
2023-01-29T00:32:00.679Z,7.4
2023-01-29T00:33:00.569Z,7.4
2023-01-29T00:34:00.427Z,7.4
2023-01-29T00:35:00.384Z,7.4
2023-01-29T00:36:04.769Z,8.0
2023-01-29T00:37:00.378Z,8.0
2023-01-29T00:38:00.400Z,8.0
2023-01-29T00:39:00.780Z,8.0
2023-01-29T00:40:00.409Z,8.0
2023-01-29T00:41:11.778Z,8.0
2023-01-29T00:42:00.388Z,8.0
2023-01-29T00:43:00.393Z,8.0
2023-01-29T00:44:00.738Z,8.0
2023-01-29T00:45:00.455Z,8.0
2023-01-29T00:46:00.377Z,8.5
2023-01-29T00:47:01.158Z,8.5
2023-01-29T00:48:00.378Z,8.5
2023-01-29T00:49:00.962Z,8.5
2023-01-29T00:50:01.265Z,8.5
2023-01-29T00:51:01.340Z,8.7
2023-01-29T00:52:00.391Z,8.7
2023-01-29T00:53:00.454Z,8.7
2023-01-29T00:54:00.402Z,8.7
2023-01-29T00:55:00.455Z,8.7
2023-01-29T00:56:00.354Z,8.6
2023-01-29T00:57:02.637Z,8.6
2023-01-29T00:58:00.395Z,8.6
2023-01-29T00:59:00.668Z,8.6
2023-01-29T01:00:01.625Z,8.6
2023-01-29T01:01:01.471Z,9.0
2023-01-29T01:02:00.486Z,9.0
2023-01-29T01:03:00.552Z,9.0
2023-01-29T01:04:00.371Z,9.0
2023-01-29T01:05:00.695Z,9.0
2023-01-29T01:06:02.633Z,9.8
2023-01-29T01:07:00.398Z,9.8
2023-01-29T01:08:00.417Z,9.8
2023-01-29T01:09:00.373Z,9.8
2023-01-29T01:10:00.412Z,9.6
2023-01-29T01:11:03.626Z,9.6
2023-01-29T01:12:00.385Z,9.6
2023-01-29T01:13:03.810Z,9.6
2023-01-29T01:14:00.379Z,9.6
2023-01-29T01:15:00.390Z,9.7
2023-01-29T01:16:00.915Z,9.7
2023-01-29T01:17:00.611Z,9.7
2023-01-29T01:18:02.068Z,9.7
2023-01-29T01:19:02.245Z,9.7
2023-01-29T01:20:00.672Z,9.8
2023-01-29T01:21:00.370Z,9.8
2023-01-29T01:22:00.821Z,9.8
2023-01-29T01:23:00.442Z,9.8
2023-01-29T01:24:00.492Z,9.8
2023-01-29T01:25:00.641Z,10.5
2023-01-29T01:26:00.429Z,10.5
2023-01-29T01:27:00.410Z,10.5
2023-01-29T01:28:00.407Z,10.5
2023-01-29T01:29:00.392Z,10.5
2023-01-29T01:30:00.390Z,9.9
2023-01-29T01:31:09.260Z,9.9
2023-01-29T01:32:00.498Z,9.9
2023-01-29T01:33:00.399Z,9.9
2023-01-29T01:34:00.388Z,9.9
2023-01-29T01:35:00.396Z,10.2
2023-01-29T01:36:01.283Z,10.2
2023-01-29T01:37:00.363Z,10.2
2023-01-29T01:38:00.384Z,10.2
2023-01-29T01:39:00.379Z,10.2
2023-01-29T01:40:00.412Z,9.9
2023-01-29T01:41:00.375Z,9.9
2023-01-29T01:42:00.377Z,9.9
2023-01-29T01:43:00.465Z,9.9
2023-01-29T01:44:02.256Z,9.9
2023-01-29T01:45:04.133Z,9.8
2023-01-29T01:46:00.545Z,9.8
2023-01-29T01:47:00.753Z,9.8
2023-01-29T01:48:08.513Z,9.8
2023-01-29T01:49:12.940Z,9.8
2023-01-29T01:50:06.625Z,10.7
2023-01-29T01:51:04.228Z,10.7
2023-01-29T01:52:00.408Z,10.7
2023-01-29T01:53:07.787Z,10.7
2023-01-29T01:54:05.933Z,10.7
2023-01-29T01:55:01.038Z,8.8
2023-01-29T01:56:05.002Z,8.8
2023-01-29T01:57:08.218Z,8.8
2023-01-29T01:58:08.912Z,8.8
2023-01-29T01:59:00.447Z,8.8
2023-01-29T02:00:06.691Z,8.9
2023-01-29T02:01:01.290Z,8.9
2023-01-29T02:02:00.464Z,8.9
2023-01-29T02:03:01.627Z,8.9
2023-01-29T02:04:06.155Z,8.9
2023-01-29T02:05:00.891Z,8.8
2023-01-29T02:06:00.569Z,8.8
2023-01-29T02:07:03.383Z,8.8
2023-01-29T02:08:00.418Z,8.8
2023-01-29T02:09:04.912Z,8.8
2023-01-29T02:10:10.983Z,7.9
2023-01-29T02:11:00.725Z,7.9
2023-01-29T02:12:05.203Z,7.9
2023-01-29T02:13:00.473Z,7.9
2023-01-29T02:14:00.586Z,7.9
2023-01-29T02:15:01.131Z,7.8
2023-01-29T02:16:00.404Z,7.8
2023-01-29T02:17:00.821Z,7.8
2023-01-29T02:18:00.478Z,7.8
2023-01-29T02:19:01.006Z,7.8
2023-01-29T02:20:19.767Z,7.5
2023-01-29T02:21:13.589Z,7.5
2023-01-29T02:22:20.280Z,7.5
2023-01-29T02:23:10.353Z,7.5
2023-01-29T02:24:20.353Z,7.5
2023-01-29T02:25:13.910Z,7.9
2023-01-29T02:26:20.482Z,7.9
2023-01-29T02:27:14.237Z,7.9
2023-01-29T02:28:20.314Z,7.9
2023-01-29T02:29:07.665Z,7.9
2023-01-29T02:30:10.656Z,7.8
2023-01-29T02:31:08.824Z,7.8
2023-01-29T02:32:08.308Z,7.8
2023-01-29T02:33:11.785Z,7.8
2023-01-29T02:34:13.160Z,7.8
2023-01-29T02:35:13.603Z,8.1
2023-01-29T02:36:13.236Z,8.1
2023-01-29T02:37:07.988Z,8.1
2023-01-29T02:38:10.546Z,8.1
2023-01-29T02:39:09.783Z,8.1
2023-01-29T02:40:08.393Z,8.3
2023-01-29T02:41:04.208Z,8.3
2023-01-29T02:42:10.531Z,8.3
2023-01-29T02:43:14.305Z,8.3
2023-01-29T02:44:17.792Z,8.3
2023-01-29T02:45:12.608Z,9.1
2023-01-29T02:46:10.416Z,9.1
2023-01-29T02:47:04.686Z,9.1
2023-01-29T02:48:01.242Z,9.1
2023-01-29T02:49:18.747Z,9.1
2023-01-29T02:50:10.353Z,9.5
2023-01-29T02:51:07.793Z,9.5
2023-01-29T02:52:06.238Z,9.5
2023-01-29T02:53:07.002Z,9.5
2023-01-29T02:54:06.213Z,9.5
2023-01-29T02:55:08.702Z,10.3
2023-01-29T02:56:07.856Z,10.3
2023-01-29T02:57:08.595Z,10.3
2023-01-29T02:58:12.314Z,10.3
2023-01-29T02:59:10.918Z,10.3
2023-01-29T03:00:08.459Z,10.4
2023-01-29T03:01:08.777Z,10.4
2023-01-29T03:02:09.661Z,10.4
2023-01-29T03:03:16.163Z,10.4
2023-01-29T03:04:07.206Z,10.4
2023-01-29T03:05:05.836Z,10.1
2023-01-29T03:06:08.945Z,10.1
2023-01-29T03:07:05.184Z,10.1
2023-01-29T03:08:08.260Z,10.1
2023-01-29T03:09:05.951Z,10.1
2023-01-29T03:10:02.059Z,10.5
2023-01-29T03:11:03.070Z,10.5
2023-01-29T03:12:09.526Z,10.5
2023-01-29T03:13:08.721Z,10.5
2023-01-29T03:14:08.963Z,10.5
2023-01-29T03:15:06.957Z,9.4
2023-01-29T03:16:11.125Z,9.4
2023-01-29T03:17:01.597Z,9.4
2023-01-29T03:18:07.893Z,9.4
2023-01-29T03:19:10.771Z,9.4
2023-01-29T03:20:03.778Z,9.2
2023-01-29T03:21:07.696Z,9.2
2023-01-29T03:22:03.326Z,9.2
2023-01-29T03:23:13.004Z,9.2
2023-01-29T03:24:00.525Z,9.2
2023-01-29T03:25:03.837Z,9.6
2023-01-29T03:26:00.593Z,9.6
2023-01-29T03:27:03.005Z,9.6
2023-01-29T03:28:04.329Z,9.6
2023-01-29T03:29:04.657Z,9.6
2023-01-29T03:30:02.597Z,9.7
2023-01-29T03:31:04.791Z,9.7
2023-01-29T03:32:01.099Z,9.7
2023-01-29T03:33:05.323Z,9.7
2023-01-29T03:34:07.278Z,9.7
2023-01-29T03:35:05.492Z,8.4
2023-01-29T03:36:10.726Z,8.4
2023-01-29T03:37:06.231Z,8.4
2023-01-29T03:38:01.639Z,8.4
2023-01-29T03:39:00.397Z,8.4
2023-01-29T03:40:01.580Z,8.6
2023-01-29T03:41:07.241Z,8.6
2023-01-29T03:42:11.440Z,8.6
2023-01-29T03:43:10.367Z,8.6
2023-01-29T03:44:11.467Z,8.6
2023-01-29T03:45:16.251Z,7.8
2023-01-29T03:46:07.731Z,7.8
2023-01-29T03:47:11.324Z,7.8
2023-01-29T03:48:15.319Z,7.8
2023-01-29T03:49:11.259Z,7.8
2023-01-29T03:50:13.935Z,7.7
2023-01-29T03:51:10.365Z,7.7
2023-01-29T03:52:07.316Z,7.7
2023-01-29T03:53:11.330Z,7.7
2023-01-29T03:54:08.584Z,7.7
2023-01-29T03:55:11.992Z,7.8
2023-01-29T03:56:06.734Z,7.8
2023-01-29T03:57:11.918Z,7.8
2023-01-29T03:58:11.667Z,7.8
2023-01-29T03:59:03.738Z,7.8
2023-01-29T04:00:15.704Z,7.7
2023-01-29T04:01:09.929Z,7.7
2023-01-29T04:02:06.185Z,7.7
2023-01-29T04:03:20.236Z,7.7
2023-01-29T04:04:14.304Z,7.7
2023-01-29T04:05:04.727Z,8.0
2023-01-29T04:06:07.900Z,8.0
2023-01-29T04:07:07.879Z,8.0
2023-01-29T04:08:08.649Z,8.0
2023-01-29T04:09:17.779Z,8.0
2023-01-29T04:10:12.666Z,7.8
2023-01-29T04:11:07.395Z,7.8
2023-01-29T04:12:04.711Z,7.8
2023-01-29T04:13:05.411Z,7.8
2023-01-29T04:14:01.002Z,7.8
2023-01-29T04:15:01.076Z,8.3
2023-01-29T04:16:03.004Z,8.3
2023-01-29T04:17:06.876Z,8.3
2023-01-29T04:18:00.957Z,8.3
2023-01-29T04:19:00.461Z,8.3
2023-01-29T04:20:01.113Z,7.9
2023-01-29T04:21:01.391Z,7.9
2023-01-29T04:22:06.428Z,7.9
2023-01-29T04:23:00.386Z,7.9
2023-01-29T04:24:00.422Z,7.9
2023-01-29T04:25:06.162Z,7.7
2023-01-29T04:26:07.846Z,7.7
2023-01-29T04:27:10.308Z,7.7
2023-01-29T04:28:05.808Z,7.7
2023-01-29T04:29:20.301Z,8.7
2023-01-29T04:30:12.343Z,8.7
2023-01-29T04:31:07.291Z,8.7
2023-01-29T04:32:15.150Z,8.7
2023-01-29T04:33:11.957Z,8.7
2023-01-29T04:34:20.290Z,8.3
2023-01-29T04:35:11.358Z,8.3
2023-01-29T04:36:13.615Z,8.3
2023-01-29T04:37:11.550Z,8.3
2023-01-29T04:38:07.974Z,8.3
2023-01-29T04:39:01.404Z,8.3
2023-01-29T04:40:13.698Z,8.5
2023-01-29T04:41:07.265Z,8.5
2023-01-29T04:42:11.573Z,8.5
2023-01-29T04:43:08.412Z,8.5
2023-01-29T04:44:10.051Z,8.5
2023-01-29T04:45:15.843Z,8.7
2023-01-29T04:46:20.293Z,8.7
2023-01-29T04:47:09.700Z,8.7
2023-01-29T04:48:11.353Z,8.7
2023-01-29T04:49:11.353Z,8.7
2023-01-29T04:50:18.200Z,8.8
2023-01-29T04:51:11.811Z,8.8
2023-01-29T04:52:08.147Z,8.8
2023-01-29T04:53:20.291Z,8.8
2023-01-29T04:54:14.979Z,8.7
2023-01-29T04:55:05.231Z,8.7
2023-01-29T04:56:14.574Z,8.7
2023-01-29T04:57:07.492Z,8.7
2023-01-29T04:58:14.237Z,8.7
2023-01-29T04:59:06.914Z,8.7
2023-01-29T05:00:09.933Z,9.4
2023-01-29T05:01:05.288Z,9.4
2023-01-29T05:02:01.389Z,9.4
2023-01-29T05:03:00.987Z,9.4
2023-01-29T05:04:04.188Z,9.4
2023-01-29T05:05:02.099Z,9.2
2023-01-29T05:06:01.562Z,9.2
2023-01-29T05:07:03.363Z,9.2
2023-01-29T05:08:02.284Z,9.2
2023-01-29T05:09:01.435Z,9.2
2023-01-29T05:10:02.885Z,9.6
2023-01-29T05:11:00.372Z,9.6
2023-01-29T05:12:02.476Z,9.6
2023-01-29T05:13:05.378Z,9.6
2023-01-29T05:14:05.586Z,9.6
2023-01-29T05:15:03.508Z,10.0
2023-01-29T05:16:08.913Z,10.0
2023-01-29T05:17:06.456Z,10.0
2023-01-29T05:18:00.435Z,10.0
2023-01-29T05:19:00.399Z,10.0
2023-01-29T05:20:00.401Z,9.8
2023-01-29T05:21:05.219Z,9.8
2023-01-29T05:22:04.686Z,9.8
2023-01-29T05:23:00.515Z,9.8
2023-01-29T05:24:05.184Z,9.2
2023-01-29T05:25:00.388Z,9.2
2023-01-29T05:26:00.445Z,9.2
2023-01-29T05:27:00.443Z,9.2
2023-01-29T05:28:00.366Z,9.2
2023-01-29T05:29:00.379Z,9.2
2023-01-29T05:30:00.505Z,9.4
2023-01-29T05:31:00.496Z,9.4
2023-01-29T05:32:00.607Z,9.4
2023-01-29T05:33:00.843Z,9.4
2023-01-29T05:34:00.387Z,9.4
2023-01-29T05:35:00.483Z,9.5
2023-01-29T05:36:00.395Z,9.5
2023-01-29T05:37:00.386Z,9.5
2023-01-29T05:38:00.405Z,9.5
2023-01-29T05:39:00.391Z,9.5
2023-01-29T05:40:00.464Z,9.2
2023-01-29T05:41:00.358Z,9.2
2023-01-29T05:42:00.934Z,9.2
2023-01-29T05:43:00.512Z,9.2
2023-01-29T05:44:00.372Z,9.3
2023-01-29T05:45:00.425Z,9.3
2023-01-29T05:46:00.439Z,9.3
2023-01-29T05:47:00.447Z,9.3
2023-01-29T05:48:00.348Z,9.3
2023-01-29T05:49:00.386Z,9.4
2023-01-29T05:50:00.380Z,9.4
2023-01-29T05:51:00.842Z,9.4
2023-01-29T05:52:00.404Z,9.4
2023-01-29T05:53:01.286Z,9.4
2023-01-29T05:54:00.483Z,9.3
2023-01-29T05:55:00.482Z,9.3
2023-01-29T05:56:01.677Z,9.3
2023-01-29T05:57:00.404Z,9.3
2023-01-29T05:58:00.429Z,9.3
2023-01-29T05:59:00.381Z,9.7
2023-01-29T06:00:00.466Z,9.7
2023-01-29T06:01:11.692Z,9.7
2023-01-29T06:02:00.448Z,9.7
2023-01-29T06:03:00.393Z,9.7
2023-01-29T06:04:00.398Z,9.3
2023-01-29T06:05:00.441Z,9.3
2023-01-29T06:06:00.780Z,9.3
2023-01-29T06:07:00.439Z,9.3
2023-01-29T06:08:00.370Z,9.3
2023-01-29T06:09:00.467Z,9.0
2023-01-29T06:10:00.981Z,9.0
2023-01-29T06:11:00.402Z,9.0
2023-01-29T06:12:00.417Z,9.0
2023-01-29T06:13:00.405Z,9.0
2023-01-29T06:14:00.422Z,8.7
2023-01-29T06:15:00.424Z,8.7
2023-01-29T06:16:03.340Z,8.7
2023-01-29T06:17:00.501Z,8.7
2023-01-29T06:18:00.398Z,8.7
2023-01-29T06:19:00.432Z,8.9
2023-01-29T06:20:00.868Z,8.9
2023-01-29T06:21:01.621Z,8.9
2023-01-29T06:22:00.439Z,8.9
2023-01-29T06:23:00.370Z,8.9
2023-01-29T06:24:00.415Z,9.1
2023-01-29T06:25:00.646Z,9.1
2023-01-29T06:26:02.449Z,9.1
2023-01-29T06:27:00.425Z,9.1
2023-01-29T06:28:00.440Z,9.1
2023-01-29T06:29:00.394Z,9.0
2023-01-29T06:30:00.479Z,9.0
2023-01-29T06:31:19.990Z,9.0
2023-01-29T06:32:00.535Z,9.0
2023-01-29T06:33:00.404Z,9.0
2023-01-29T06:34:00.336Z,9.1
2023-01-29T06:35:00.372Z,9.1
2023-01-29T06:36:03.575Z,9.1
2023-01-29T06:37:00.383Z,9.1
2023-01-29T06:38:00.544Z,9.1
2023-01-29T06:39:00.729Z,9.9
2023-01-29T06:40:00.359Z,9.9
2023-01-29T06:41:07.769Z,9.9
2023-01-29T06:42:00.365Z,9.9
2023-01-29T06:43:00.326Z,9.9
2023-01-29T06:44:00.533Z,9.4
2023-01-29T06:45:00.353Z,9.4
2023-01-29T06:46:00.386Z,9.4
2023-01-29T06:47:00.337Z,9.4
2023-01-29T06:48:01.540Z,9.4
2023-01-29T06:49:00.347Z,9.3
2023-01-29T06:50:00.402Z,9.3
2023-01-29T06:51:02.000Z,9.3
2023-01-29T06:52:00.345Z,9.3
2023-01-29T06:53:00.367Z,9.3
2023-01-29T06:54:00.347Z,9.6
2023-01-29T06:55:00.343Z,9.6
2023-01-29T06:56:00.382Z,9.6
2023-01-29T06:57:00.314Z,9.6
2023-01-29T06:58:04.715Z,9.6
2023-01-29T06:59:00.339Z,9.3
2023-01-29T07:00:00.472Z,9.3
2023-01-29T07:01:02.417Z,9.3
2023-01-29T07:02:00.397Z,9.3
2023-01-29T07:03:00.447Z,9.3
2023-01-29T07:04:00.368Z,9.1
2023-01-29T07:05:00.320Z,9.1
2023-01-29T07:06:00.657Z,9.1
2023-01-29T07:07:00.356Z,9.1
2023-01-29T07:08:00.402Z,9.1
2023-01-29T07:09:01.411Z,9.2
2023-01-29T07:10:00.366Z,9.2
2023-01-29T07:11:00.548Z,9.2
2023-01-29T07:12:00.341Z,9.2
2023-01-29T07:13:00.651Z,9.2
2023-01-29T07:14:00.382Z,9.3
2023-01-29T07:15:00.457Z,9.3
2023-01-29T07:16:02.200Z,9.3
2023-01-29T07:17:00.372Z,9.3
2023-01-29T07:18:02.649Z,9.3
2023-01-29T07:19:00.409Z,8.8
2023-01-29T07:20:00.390Z,8.8
2023-01-29T07:21:03.239Z,8.8
2023-01-29T07:22:00.413Z,8.8
2023-01-29T07:23:00.381Z,8.8
2023-01-29T07:24:00.421Z,9.5
2023-01-29T07:25:00.381Z,9.5
2023-01-29T07:26:01.369Z,9.5
2023-01-29T07:27:00.416Z,9.5
2023-01-29T07:28:01.119Z,9.5
2023-01-29T07:29:00.379Z,9.1
2023-01-29T07:30:00.390Z,9.1
2023-01-29T07:31:00.489Z,9.1
2023-01-29T07:32:00.505Z,9.1
2023-01-29T07:33:01.151Z,9.1
2023-01-29T07:34:00.391Z,9.0
2023-01-29T07:35:00.411Z,9.0
2023-01-29T07:36:00.534Z,9.0
2023-01-29T07:37:00.413Z,9.0
2023-01-29T07:38:00.411Z,9.0
2023-01-29T07:39:00.393Z,8.8
2023-01-29T07:40:00.489Z,8.8
2023-01-29T07:41:02.827Z,8.8
2023-01-29T07:42:00.379Z,8.8
2023-01-29T07:43:02.241Z,8.8
2023-01-29T07:44:00.375Z,9.0
2023-01-29T07:45:00.418Z,9.0
2023-01-29T07:46:01.552Z,9.0
2023-01-29T07:47:00.377Z,9.0
2023-01-29T07:48:00.390Z,9.0
2023-01-29T07:49:00.391Z,9.0
2023-01-29T07:50:00.472Z,9.0
2023-01-29T07:51:00.455Z,9.0
2023-01-29T07:52:00.393Z,9.0
2023-01-29T07:53:00.872Z,9.0
2023-01-29T07:54:00.397Z,9.2
2023-01-29T07:55:00.410Z,9.2
2023-01-29T07:56:00.430Z,9.2
2023-01-29T07:57:00.370Z,9.2
2023-01-29T07:58:02.960Z,9.2
2023-01-29T07:59:00.391Z,9.0
2023-01-29T08:00:00.394Z,9.0
2023-01-29T08:01:04.999Z,9.0
2023-01-29T08:02:00.423Z,9.0
2023-01-29T08:03:02.322Z,9.0
2023-01-29T08:04:00.378Z,8.4
2023-01-29T08:05:00.413Z,8.4
2023-01-29T08:06:00.516Z,8.4
2023-01-29T08:07:00.392Z,8.4
2023-01-29T08:08:06.824Z,8.4
2023-01-29T08:09:00.383Z,9.0
2023-01-29T08:10:00.516Z,9.0
2023-01-29T08:11:01.598Z,9.0
2023-01-29T08:12:00.525Z,9.0
2023-01-29T08:13:01.436Z,9.0
2023-01-29T08:14:00.421Z,9.2
2023-01-29T08:15:00.588Z,9.2
2023-01-29T08:16:01.721Z,9.2
2023-01-29T08:17:00.376Z,9.2
2023-01-29T08:18:01.696Z,9.2
2023-01-29T08:19:01.267Z,9.3
2023-01-29T08:20:00.381Z,9.3
2023-01-29T08:21:00.960Z,9.3
2023-01-29T08:22:00.393Z,9.3
2023-01-29T08:23:03.042Z,9.3
2023-01-29T08:25:08.191Z,9.1
2023-01-29T08:26:02.293Z,9.1
2023-01-29T08:27:00.394Z,9.1
2023-01-29T08:28:00.442Z,9.1
2023-01-29T08:29:00.435Z,9.2
2023-01-29T08:30:00.396Z,9.2
2023-01-29T08:31:00.570Z,9.2
2023-01-29T08:32:00.859Z,9.2
2023-01-29T08:33:02.411Z,9.2
2023-01-29T08:34:00.409Z,9.7
2023-01-29T08:35:00.403Z,9.7
2023-01-29T08:36:00.395Z,9.7
2023-01-29T08:37:00.382Z,9.7
2023-01-29T08:38:02.205Z,9.7
2023-01-29T08:39:00.527Z,9.6
2023-01-29T08:40:00.512Z,9.6
2023-01-29T08:41:00.451Z,9.6
2023-01-29T08:42:00.383Z,9.6
2023-01-29T08:43:03.026Z,9.6
2023-01-29T08:44:00.461Z,9.9
2023-01-29T08:45:00.446Z,9.9
2023-01-29T08:46:03.170Z,9.9
2023-01-29T08:47:00.376Z,9.9
2023-01-29T08:48:00.719Z,9.9
2023-01-29T08:49:00.363Z,9.5
2023-01-29T08:50:00.345Z,9.5
2023-01-29T08:51:01.069Z,9.5
2023-01-29T08:52:02.406Z,9.5
2023-01-29T08:53:03.368Z,9.5
2023-01-29T08:54:00.336Z,10.2
2023-01-29T08:55:00.317Z,10.2
2023-01-29T08:56:00.787Z,10.2
2023-01-29T08:57:00.323Z,10.2
2023-01-29T08:58:00.353Z,10.2
2023-01-29T08:59:00.339Z,9.9
2023-01-29T09:00:00.377Z,9.9
2023-01-29T09:01:09.089Z,9.9
2023-01-29T09:02:00.312Z,9.9
2023-01-29T09:03:00.436Z,9.9
2023-01-29T09:04:00.318Z,9.7
2023-01-29T09:05:00.334Z,9.7
2023-01-29T09:06:00.618Z,9.7
2023-01-29T09:07:00.367Z,9.7
2023-01-29T09:08:00.306Z,9.7
2023-01-29T09:09:00.449Z,10.2
2023-01-29T09:10:01.198Z,10.2
2023-01-29T09:11:00.327Z,10.2
2023-01-29T09:12:00.318Z,10.2
2023-01-29T09:13:00.569Z,10.2
2023-01-29T09:14:00.301Z,9.7
2023-01-29T09:15:00.327Z,9.7
2023-01-29T09:16:01.747Z,9.7
2023-01-29T09:17:00.309Z,9.7
2023-01-29T09:18:02.885Z,9.7
2023-01-29T09:19:00.319Z,10.1
2023-01-29T09:20:00.432Z,10.1
2023-01-29T09:21:00.414Z,10.1
2023-01-29T09:22:00.365Z,10.1
2023-01-29T09:23:06.591Z,10.1
2023-01-29T09:24:00.383Z,11.1
2023-01-29T09:25:00.474Z,11.1
2023-01-29T09:26:00.556Z,11.1
2023-01-29T09:27:00.815Z,11.1
2023-01-29T09:28:00.637Z,11.1
2023-01-29T09:29:00.359Z,9.8
2023-01-29T09:30:00.382Z,9.8
2023-01-29T09:31:01.416Z,9.8
2023-01-29T09:32:00.417Z,9.8
2023-01-29T09:33:00.361Z,9.8
2023-01-29T09:34:00.391Z,9.6
2023-01-29T09:35:00.366Z,9.6
2023-01-29T09:36:01.765Z,9.6
2023-01-29T09:37:00.431Z,9.6
2023-01-29T09:38:00.398Z,9.6
2023-01-29T09:39:00.381Z,9.6
2023-01-29T09:40:00.388Z,9.6
2023-01-29T09:41:17.756Z,9.6
2023-01-29T09:42:15.318Z,9.6
2023-01-29T09:43:09.575Z,9.6
2023-01-29T09:44:03.594Z,10.3
2023-01-29T09:45:08.648Z,10.3
2023-01-29T09:46:06.102Z,10.3
2023-01-29T09:47:02.501Z,10.3
2023-01-29T09:48:03.270Z,10.3
2023-01-29T09:49:06.220Z,10.2
2023-01-29T09:50:14.537Z,10.2
2023-01-29T09:51:06.094Z,10.2
2023-01-29T09:52:05.887Z,10.2
2023-01-29T09:53:09.878Z,10.1
2023-01-29T09:54:10.349Z,10.1
2023-01-29T09:55:10.985Z,10.1
2023-01-29T09:56:09.935Z,10.1
2023-01-29T09:57:00.576Z,10.1
2023-01-29T09:58:13.171Z,10.7
2023-01-29T09:59:01.629Z,10.7
2023-01-29T10:00:00.463Z,10.7
2023-01-29T10:01:13.773Z,10.7
2023-01-29T10:02:10.481Z,10.7
2023-01-29T10:03:18.072Z,10.5
2023-01-29T10:04:11.405Z,10.5
2023-01-29T10:05:10.320Z,10.5
2023-01-29T10:06:11.341Z,10.5
2023-01-29T10:07:15.539Z,10.5
2023-01-29T10:08:18.269Z,10.8
2023-01-29T10:09:20.296Z,10.8
2023-01-29T10:10:15.645Z,10.8
2023-01-29T10:11:20.297Z,10.8
2023-01-29T10:12:10.334Z,10.8
2023-01-29T10:13:09.897Z,11.2
2023-01-29T10:14:18.178Z,11.2
2023-01-29T10:15:20.282Z,11.2
2023-01-29T10:16:17.009Z,11.2
2023-01-29T10:17:20.385Z,11.2
2023-01-29T10:18:10.320Z,11.0
2023-01-29T10:19:12.078Z,11.0
2023-01-29T10:20:11.402Z,11.0
2023-01-29T10:21:16.255Z,11.0
2023-01-29T10:22:16.276Z,11.0
2023-01-29T10:23:10.661Z,10.5
2023-01-29T10:24:20.299Z,10.5
2023-01-29T10:25:04.170Z,10.5
2023-01-29T10:26:00.751Z,10.5
2023-01-29T10:27:02.116Z,10.5
2023-01-29T10:28:00.546Z,10.5
2023-01-29T10:29:05.313Z,10.8
2023-01-29T10:30:07.223Z,10.8
2023-01-29T10:31:05.856Z,10.8
2023-01-29T10:32:01.627Z,10.8
2023-01-29T10:33:04.079Z,11.1
2023-01-29T10:34:10.172Z,11.1
2023-01-29T10:35:20.281Z,11.1
2023-01-29T10:36:03.740Z,11.1
2023-01-29T10:37:07.254Z,11.1
2023-01-29T10:38:14.877Z,10.7
2023-01-29T10:39:00.505Z,10.7
2023-01-29T10:40:00.433Z,10.7
2023-01-29T10:41:01.386Z,10.7
2023-01-29T10:42:04.799Z,10.7
2023-01-29T10:43:14.487Z,10.6
2023-01-29T10:44:13.659Z,10.6
2023-01-29T10:45:12.868Z,10.6
2023-01-29T10:46:13.655Z,10.6
2023-01-29T10:47:11.383Z,10.6
2023-01-29T10:48:17.840Z,10.8
2023-01-29T10:49:13.607Z,10.8
2023-01-29T10:50:16.583Z,10.8
2023-01-29T10:51:09.452Z,10.8
2023-01-29T10:52:14.922Z,10.8
2023-01-29T10:53:10.318Z,9.9
2023-01-29T10:54:11.387Z,9.9
2023-01-29T10:55:11.346Z,9.9
2023-01-29T10:56:23.174Z,9.9
2023-01-29T10:57:20.294Z,9.9
2023-01-29T10:58:13.142Z,10.4
2023-01-29T10:59:08.747Z,10.4
2023-01-29T11:00:16.269Z,10.4
2023-01-29T11:01:00.592Z,10.4
2023-01-29T11:02:00.578Z,10.4
2023-01-29T11:03:26.006Z,10.0
2023-01-29T11:04:03.285Z,10.0
2023-01-29T11:05:00.749Z,10.0
2023-01-29T11:06:08.966Z,10.0
2023-01-29T11:07:00.397Z,10.0
2023-01-29T11:08:11.445Z,10.2
2023-01-29T11:09:16.104Z,10.2
2023-01-29T11:10:09.731Z,10.2
2023-01-29T11:11:06.835Z,10.2
2023-01-29T11:12:04.729Z,10.2
2023-01-29T11:13:02.242Z,10.2
2023-01-29T11:14:04.303Z,10.2
2023-01-29T11:15:10.335Z,10.2
2023-01-29T11:16:00.533Z,10.2
2023-01-29T11:17:00.618Z,10.2
2023-01-29T11:18:04.170Z,9.9
2023-01-29T11:19:00.574Z,9.9
2023-01-29T11:20:00.416Z,9.9
2023-01-29T11:21:03.180Z,9.9
2023-01-29T11:22:00.605Z,9.9
2023-01-29T11:23:00.454Z,10.2
2023-01-29T11:24:05.641Z,10.2
2023-01-29T11:25:07.881Z,10.2
2023-01-29T11:26:11.544Z,10.2
2023-01-29T11:27:00.403Z,10.2
2023-01-29T11:28:01.948Z,10.1
2023-01-29T11:29:00.367Z,10.1
2023-01-29T11:30:00.610Z,10.1
2023-01-29T11:31:01.326Z,10.1
2023-01-29T11:32:05.328Z,10.1
2023-01-29T11:33:13.592Z,14.0
2023-01-29T11:34:05.492Z,14.0
2023-01-29T11:35:02.939Z,14.0
2023-01-29T11:36:20.273Z,14.0
2023-01-29T11:37:03.855Z,14.0
2023-01-29T11:38:20.278Z,10.1
2023-01-29T11:39:12.409Z,10.1
2023-01-29T11:40:00.632Z,10.1
2023-01-29T11:41:06.115Z,10.1
2023-01-29T11:42:03.818Z,10.1
2023-01-29T11:43:11.518Z,10.0
2023-01-29T11:44:00.375Z,10.0
2023-01-29T11:45:00.421Z,10.0
2023-01-29T11:46:03.988Z,10.0
2023-01-29T11:47:11.891Z,10.0
2023-01-29T11:48:00.647Z,9.7
2023-01-29T11:49:09.940Z,9.7
2023-01-29T11:50:02.139Z,9.7
2023-01-29T11:51:01.382Z,9.7
2023-01-29T11:52:03.702Z,9.7
2023-01-29T11:53:00.968Z,9.8
2023-01-29T11:54:03.161Z,9.8
2023-01-29T11:55:05.508Z,9.8
2023-01-29T11:56:04.823Z,9.8
2023-01-29T11:57:02.037Z,9.8
2023-01-29T11:58:12.021Z,9.6
2023-01-29T11:59:01.456Z,9.6
2023-01-29T12:00:05.933Z,9.6
2023-01-29T12:01:01.776Z,9.6
2023-01-29T12:02:10.571Z,9.6
2023-01-29T12:03:10.337Z,9.4
2023-01-29T12:04:01.886Z,9.4
2023-01-29T12:05:14.550Z,9.4
2023-01-29T12:06:16.324Z,9.4
2023-01-29T12:07:00.361Z,9.4
2023-01-29T12:08:01.335Z,8.7
2023-01-29T12:09:02.779Z,8.7
2023-01-29T12:10:00.544Z,8.7
2023-01-29T12:11:10.817Z,8.7
2023-01-29T12:12:20.303Z,8.7
2023-01-29T12:13:11.993Z,9.6
2023-01-29T12:14:02.810Z,9.6
2023-01-29T12:15:13.294Z,9.6
2023-01-29T12:16:12.652Z,9.6
2023-01-29T12:17:05.159Z,9.6
2023-01-29T12:18:14.693Z,8.2
2023-01-29T12:19:08.523Z,8.2
2023-01-29T12:20:05.868Z,8.2
2023-01-29T12:21:03.824Z,8.2
2023-01-29T12:22:09.500Z,8.2
2023-01-29T12:23:05.510Z,7.8
2023-01-29T12:24:10.898Z,7.8
2023-01-29T12:25:10.547Z,7.8
2023-01-29T12:26:15.079Z,7.8
2023-01-29T12:27:15.991Z,7.8
2023-01-29T12:28:13.925Z,7.7
2023-01-29T12:29:15.952Z,7.7
2023-01-29T12:30:20.310Z,7.7
2023-01-29T12:31:20.327Z,7.7
2023-01-29T12:32:08.246Z,7.7
2023-01-29T12:33:19.030Z,9.3
2023-01-29T12:34:20.289Z,9.3
2023-01-29T12:35:12.652Z,9.3
2023-01-29T12:36:10.721Z,9.3
2023-01-29T12:37:16.629Z,9.3
2023-01-29T12:38:06.004Z,8.1
2023-01-29T12:39:00.572Z,8.1
2023-01-29T12:40:00.895Z,8.1
2023-01-29T12:41:17.745Z,8.1
2023-01-29T12:42:07.292Z,8.1
2023-01-29T12:43:08.519Z,7.1
2023-01-29T12:44:12.641Z,7.1
2023-01-29T12:45:05.153Z,7.1
2023-01-29T12:46:01.693Z,7.1
2023-01-29T12:47:05.552Z,7.1
2023-01-29T12:48:07.162Z,6.6
2023-01-29T12:49:06.334Z,6.6
2023-01-29T12:50:06.775Z,6.6
2023-01-29T12:51:13.560Z,6.6
2023-01-29T12:52:08.134Z,6.6
2023-01-29T12:53:09.089Z,6.9
2023-01-29T12:54:06.371Z,6.9
2023-01-29T12:55:07.973Z,6.9
2023-01-29T12:56:09.942Z,6.9
2023-01-29T12:57:06.699Z,6.9
2023-01-29T12:58:04.114Z,7.0
2023-01-29T12:59:08.859Z,7.0
2023-01-29T13:00:06.095Z,7.0
2023-01-29T13:01:11.323Z,7.0
2023-01-29T13:02:13.217Z,7.0
2023-01-29T13:03:13.621Z,6.7
2023-01-29T13:04:13.784Z,6.7
2023-01-29T13:05:16.280Z,6.7
2023-01-29T13:06:06.757Z,6.7
2023-01-29T13:07:12.050Z,6.7
2023-01-29T13:08:06.099Z,7.2
2023-01-29T13:09:06.182Z,7.2
2023-01-29T13:10:12.602Z,7.2
2023-01-29T13:11:07.332Z,7.2
2023-01-29T13:12:06.044Z,7.2
2023-01-29T13:13:14.777Z,6.9
2023-01-29T13:14:08.264Z,6.9
2023-01-29T13:15:05.675Z,6.9
2023-01-29T13:16:05.376Z,6.9
2023-01-29T13:17:08.043Z,6.9
2023-01-29T13:18:20.295Z,7.4
2023-01-29T13:19:04.936Z,7.4
2023-01-29T13:20:15.553Z,7.4
2023-01-29T13:21:01.034Z,7.4
2023-01-29T13:22:05.265Z,7.4
2023-01-29T13:23:14.752Z,8.1
2023-01-29T13:24:06.320Z,8.1
2023-01-29T13:25:05.097Z,8.1
2023-01-29T13:26:00.657Z,8.1
2023-01-29T13:27:00.418Z,8.1
2023-01-29T13:28:00.398Z,8.3
2023-01-29T13:29:00.489Z,8.3
2023-01-29T13:30:00.871Z,8.3
2023-01-29T13:31:20.348Z,8.3
2023-01-29T13:32:02.875Z,8.3
2023-01-29T13:33:06.344Z,8.5
2023-01-29T13:34:11.785Z,8.5
2023-01-29T13:35:04.535Z,8.5
2023-01-29T13:36:00.581Z,8.5
2023-01-29T13:37:03.308Z,8.5
2023-01-29T13:38:00.666Z,8.7
2023-01-29T13:39:05.076Z,8.7
2023-01-29T13:40:02.946Z,8.7
2023-01-29T13:41:03.330Z,8.7